Time;durP1;ratioP1;P1;durP2;ratioP2;P2;SDS_P1;SDS_P2;PMS_P1;PMS_P2;Temp;Humidity;BMP_temperature;BMP_pressure;BME280_temperature;BME280_humidity;BME280_pressure;Samples;Min_cycle;Max_cycle;Signal;HPM_P1;HPM_P2
2022/05/30 00:00:26;;;;;;;9.75;2.45;;;8.60;99.90;;;;;;6242055;23;20012;-79
2022/05/30 00:02:52;;;;;;;3.05;1.25;;;8.60;99.90;;;;;;6224292;22;20016;-79
2022/05/30 00:05:20;;;;;;;4.88;1.58;;;8.60;99.90;;;;;;6212217;23;20450;-79
2022/05/30 00:07:46;;;;;;;9.52;1.70;;;8.60;99.90;;;;;;6186840;23;20012;-79
2022/05/30 00:10:13;;;;;;;7.43;1.40;;;8.50;99.90;;;;;;6213349;23;20078;-79
2022/05/30 00:12:39;;;;;;;5.25;1.23;;;8.50;99.90;;;;;;6213472;23;20036;-79
2022/05/30 00:15:06;;;;;;;5.90;1.50;;;8.40;99.90;;;;;;6186822;23;20460;-79
2022/05/30 00:17:31;;;;;;;8.02;1.85;;;8.40;99.90;;;;;;6186810;23;20422;-79
2022/05/30 00:19:57;;;;;;;2.88;1.50;;;8.30;99.90;;;;;;6162010;23;20019;-79
2022/05/30 00:22:22;;;;;;;5.70;1.60;;;8.20;99.90;;;;;;6212824;23;20092;-79
2022/05/30 00:24:49;;;;;;;8.20;1.83;;;8.20;99.90;;;;;;6187213;23;20052;-79
2022/05/30 00:27:14;;;;;;;5.65;2.05;;;8.10;99.90;;;;;;6186983;23;20012;-79
2022/05/30 00:29:40;;;;;;;5.28;2.35;;;8.00;99.90;;;;;;6212786;23;20054;-79
2022/05/30 00:32:06;;;;;;;5.72;1.58;;;7.90;99.90;;;;;;6213237;23;20009;-79
2022/05/30 00:34:33;;;;;;;7.57;1.77;;;7.90;99.90;;;;;;6186572;23;20052;-79
2022/05/30 00:36:58;;;;;;;7.47;1.67;;;7.80;99.90;;;;;;6213378;23;20024;-79
2022/05/30 00:39:25;;;;;;;4.97;1.38;;;7.80;99.90;;;;;;6161846;23;20446;-79
2022/05/30 00:41:50;;;;;;;6.82;1.90;;;7.70;99.90;;;;;;6212828;23;20476;-79
2022/05/30 00:44:16;;;;;;;5.95;2.25;;;7.60;99.90;;;;;;6187099;23;20040;-79
2022/05/30 00:46:41;;;;;;;9.10;2.00;;;7.60;99.90;;;;;;6213332;23;20020;-79
2022/05/30 00:49:12;;;;;;;5.28;1.95;;;7.60;99.90;;;;;;6213041;23;20385;-79
2022/05/30 00:51:47;;;;;;;7.28;2.38;;;7.50;99.90;;;;;;6212792;23;20387;-79
2022/05/30 00:54:17;;;;;;;8.60;1.67;;;7.50;99.90;;;;;;6213075;23;20024;-79
2022/05/30 00:56:48;;;;;;;5.95;1.95;;;7.40;99.90;;;;;;6213365;23;20012;-79
2022/05/30 00:59:14;;;;;;;6.78;1.73;;;7.40;99.90;;;;;;6213415;23;20012;-78
2022/05/30 01:01:40;;;;;;;5.40;1.80;;;7.30;99.90;;;;;;6186056;23;20465;-79
2022/05/30 01:06:55;;;;;;;5.43;1.48;;;7.20;99.90;;;;;;6186779;23;20019;-79
2022/05/30 01:09:47;;;;;;;6.20;1.33;;;7.20;99.90;;;;;;6186775;23;20012;-79
2022/05/30 01:12:13;;;;;;;7.75;2.20;;;7.20;99.90;;;;;;6207153;23;20020;-79
2022/05/30 01:14:42;;;;;;;12.82;2.10;;;7.20;99.90;;;;;;6186312;23;20020;-79
2022/05/30 01:17:11;;;;;;;4.03;1.55;;;7.10;99.90;;;;;;6186473;23;20092;-79
2022/05/30 01:19:48;;;;;;;10.63;1.85;;;7.20;99.90;;;;;;6161401;23;20046;-78
2022/05/30 01:22:44;;;;;;;5.43;1.60;;;7.20;99.90;;;;;;6213106;23;20009;-79
2022/05/30 01:25:27;;;;;;;7.32;2.15;;;7.30;99.90;;;;;;6211637;23;20027;-79
2022/05/30 01:28:02;;;;;;;4.50;1.65;;;7.30;99.90;;;;;;6213018;23;20027;-79
2022/05/30 01:30:28;;;;;;;9.80;2.22;;;7.20;99.90;;;;;;6212859;23;20008;-79
2022/05/30 01:32:57;;;;;;;4.38;1.73;;;7.20;99.90;;;;;;6212656;23;20107;-79
2022/05/30 01:35:25;;;;;;;6.93;1.83;;;7.20;99.90;;;;;;6213090;23;20132;-79
2022/05/30 01:37:51;;;;;;;3.90;1.58;;;7.10;99.90;;;;;;6212901;23;20079;-79
2022/05/30 01:40:16;;;;;;;7.28;1.55;;;7.10;99.90;;;;;;6212704;23;20039;-78
2022/05/30 01:42:42;;;;;;;3.35;1.45;;;7.00;99.90;;;;;;6186115;23;20021;-78
2022/05/30 01:45:08;;;;;;;4.30;1.50;;;7.00;99.90;;;;;;6186787;23;20095;-79
2022/05/30 01:47:34;;;;;;;4.43;2.15;;;6.90;99.90;;;;;;6186486;23;20015;-78
2022/05/30 01:50:00;;;;;;;2.83;1.45;;;6.80;99.90;;;;;;6186019;23;20009;-80
2022/05/30 01:52:28;;;;;;;4.30;1.50;;;6.80;99.90;;;;;;6212746;23;20090;-79
2022/05/30 01:54:54;;;;;;;6.70;1.77;;;6.80;99.90;;;;;;6185919;23;20032;-79
2022/05/30 01:57:20;;;;;;;5.50;1.73;;;6.80;99.90;;;;;;6186227;23;20039;-80
2022/05/30 01:59:45;;;;;;;4.05;1.67;;;6.80;99.90;;;;;;6212319;23;20017;-79
2022/05/30 02:02:11;;;;;;;3.47;1.17;;;6.70;99.90;;;;;;6228136;22;20004;-78
2022/05/30 02:04:37;;;;;;;6.00;1.77;;;6.60;99.90;;;;;;6241569;23;20291;-78
2022/05/30 02:07:03;;;;;;;3.22;1.33;;;6.60;99.90;;;;;;6216325;23;20023;-79
2022/05/30 02:09:28;;;;;;;5.10;1.65;;;6.60;99.90;;;;;;6241426;23;20063;-79
2022/05/30 02:11:54;;;;;;;5.03;1.80;;;6.50;99.90;;;;;;6243153;22;20013;-80
2022/05/30 02:14:19;;;;;;;4.40;1.40;;;6.60;99.90;;;;;;6242868;22;20019;-78
2022/05/30 02:17:00;;;;;;;6.53;1.85;;;6.50;99.90;;;;;;6241682;23;20453;-79
2022/05/30 02:19:31;;;;;;;10.63;2.17;;;6.50;99.90;;;;;;6243298;22;20014;-79
2022/05/30 02:21:57;;;;;;;5.67;2.07;;;6.40;99.90;;;;;;6247216;22;20380;-78
2022/05/30 02:24:23;;;;;;;5.18;2.03;;;6.40;99.90;;;;;;6264190;23;20031;-79
2022/05/30 02:26:49;;;;;;;5.05;1.60;;;6.40;99.90;;;;;;6255892;23;20016;-79
2022/05/30 02:29:15;;;;;;;5.55;1.67;;;6.40;99.90;;;;;;6243272;22;20511;-78
2022/05/30 02:31:42;;;;;;;9.00;2.40;;;6.40;99.90;;;;;;6242333;22;20720;-78
2022/05/30 02:36:52;;;;;;;6.38;2.92;;;6.50;99.90;;;;;;6243141;23;20027;-78
2022/05/30 02:39:22;;;;;;;3.80;1.67;;;6.50;99.90;;;;;;6242988;22;20012;-78
2022/05/30 02:41:49;;;;;;;11.57;2.33;;;6.60;99.90;;;;;;6242838;22;20671;-79
2022/05/30 02:44:19;;;;;;;7.20;2.50;;;6.60;99.90;;;;;;6240877;23;20489;-78
2022/05/30 02:46:46;;;;;;;8.55;1.98;;;6.60;99.90;;;;;;6244993;22;20012;-78
2022/05/30 02:49:12;;;;;;;5.47;2.65;;;6.70;99.90;;;;;;6243137;23;20020;-78
2022/05/30 02:51:38;;;;;;;5.78;2.35;;;6.70;99.90;;;;;;6242576;22;20043;-78
2022/05/30 02:54:04;;;;;;;7.25;2.20;;;6.80;99.90;;;;;;6244527;22;20012;-79
2022/05/30 02:56:30;;;;;;;7.57;2.53;;;6.70;99.90;;;;;;6243627;23;20020;-78
2022/05/30 02:59:00;;;;;;;9.10;2.45;;;6.80;99.90;;;;;;6243446;23;20026;-79
2022/05/30 03:01:26;;;;;;;5.45;2.67;;;6.80;99.90;;;;;;6242832;22;20023;-78
2022/05/30 03:03:52;;;;;;;4.20;2.53;;;6.90;99.90;;;;;;6187811;23;20100;-78
2022/05/30 03:06:17;;;;;;;10.45;2.40;;;6.70;99.90;;;;;;6187916;23;20100;-78
2022/05/30 03:08:43;;;;;;;11.38;2.28;;;6.90;99.90;;;;;;6187668;23;20039;-79
2022/05/30 03:11:10;;;;;;;5.68;2.58;;;6.90;99.90;;;;;;6213932;23;20023;-78
2022/05/30 03:13:36;;;;;;;3.67;2.15;;;6.90;99.90;;;;;;6187365;23;20016;-78
2022/05/30 03:16:02;;;;;;;8.82;2.35;;;6.80;99.90;;;;;;6187484;23;20009;-78
2022/05/30 03:18:28;;;;;;;5.88;2.20;;;6.80;99.90;;;;;;6187948;23;20015;-78
2022/05/30 03:20:53;;;;;;;4.50;1.85;;;6.80;99.90;;;;;;6162267;23;20031;-78
2022/05/30 03:23:19;;;;;;;7.10;2.60;;;6.60;99.90;;;;;;6187621;23;20009;-78
2022/05/30 03:25:45;;;;;;;7.38;2.60;;;6.70;99.90;;;;;;6187811;23;20119;-78
2022/05/30 03:28:11;;;;;;;5.05;2.10;;;6.60;99.90;;;;;;6162848;23;20055;-79
2022/05/30 03:30:37;;;;;;;5.95;2.25;;;6.50;99.90;;;;;;6162170;23;20019;-78
2022/05/30 03:33:07;;;;;;;4.50;2.08;;;6.50;99.90;;;;;;6187242;23;20051;-78
2022/05/30 03:35:34;;;;;;;7.03;2.78;;;6.40;99.90;;;;;;6187374;23;20139;-79
2022/05/30 03:38:00;;;;;;;6.53;2.53;;;6.40;99.90;;;;;;6187710;23;20561;-78
2022/05/30 03:40:26;;;;;;;8.25;2.58;;;6.30;99.90;;;;;;6213504;23;20052;-78
2022/05/30 03:42:51;;;;;;;6.50;2.58;;;6.40;99.90;;;;;;6187387;23;20012;-78
2022/05/30 03:45:17;;;;;;;5.80;2.40;;;6.20;99.90;;;;;;6162587;23;20013;-79
2022/05/30 03:47:44;;;;;;;6.10;2.28;;;6.30;99.90;;;;;;6162405;23;20070;-78
2022/05/30 03:50:17;;;;;;;3.30;1.92;;;6.20;99.90;;;;;;6213524;23;20319;-78
2022/05/30 03:52:42;;;;;;;7.30;3.15;;;6.20;99.90;;;;;;6187110;23;20023;-78
2022/05/30 03:55:12;;;;;;;9.68;2.72;;;6.20;99.90;;;;;;6162281;23;20501;-78
2022/05/30 03:57:40;;;;;;;4.88;2.38;;;6.20;99.90;;;;;;6213938;23;20009;-79
2022/05/30 04:00:07;;;;;;;3.60;2.17;;;6.00;99.90;;;;;;6186889;23;20055;-79
2022/05/30 04:02:33;;;;;;;4.88;2.20;;;6.10;99.90;;;;;;6212987;22;20038;-77
2022/05/30 04:04:58;;;;;;;6.20;2.45;;;6.20;99.90;;;;;;6244090;22;20016;-78
2022/05/30 04:07:24;;;;;;;7.25;2.08;;;6.10;99.90;;;;;;6242385;23;20023;-78
2022/05/30 04:09:49;;;;;;;6.20;2.60;;;6.10;99.90;;;;;;6243776;22;20384;-79
2022/05/30 04:12:20;;;;;;;5.07;2.05;;;6.10;99.90;;;;;;6244168;22;20027;-76
2022/05/30 04:14:51;;;;;;;7.57;2.80;;;6.20;99.90;;;;;;6242412;23;20516;-76
2022/05/30 04:17:16;;;;;;;6.47;2.55;;;6.30;99.90;;;;;;6242215;23;20095;-76
2022/05/30 04:19:42;;;;;;;6.35;2.38;;;6.30;99.90;;;;;;6241982;23;20417;-77
2022/05/30 04:22:07;;;;;;;4.30;1.95;;;6.50;99.90;;;;;;6243712;22;20069;-76
2022/05/30 04:24:33;;;;;;;7.78;2.47;;;6.60;99.90;;;;;;6242080;23;20026;-76
2022/05/30 04:26:58;;;;;;;6.13;2.60;;;6.60;99.90;;;;;;6242532;23;20024;-76
2022/05/30 04:29:24;;;;;;;4.28;2.40;;;6.70;99.90;;;;;;6242225;23;20027;-76
2022/05/30 04:31:49;;;;;;;6.82;2.75;;;6.90;99.90;;;;;;6265378;22;20016;-78
2022/05/30 04:34:15;;;;;;;3.88;2.20;;;7.00;99.90;;;;;;6295636;22;20030;-77
2022/05/30 04:36:40;;;;;;;5.28;2.35;;;7.10;99.90;;;;;;6282924;22;20016;-77
2022/05/30 04:39:06;;;;;;;4.18;2.00;;;7.10;99.90;;;;;;6275478;22;20096;-78
2022/05/30 04:41:31;;;;;;;4.18;2.22;;;7.20;99.90;;;;;;6274882;22;20093;-77
2022/05/30 04:43:59;;;;;;;2.88;1.92;;;7.30;99.90;;;;;;6275447;22;20011;-78
2022/05/30 04:46:25;;;;;;;8.25;2.20;;;7.40;99.90;;;;;;6275421;22;20081;-77
2022/05/30 04:48:50;;;;;;;2.25;2.05;;;7.40;99.90;;;;;;6250159;22;20020;-78
2022/05/30 04:51:16;;;;;;;3.13;2.05;;;7.50;99.90;;;;;;6275051;22;20341;-78
2022/05/30 04:53:42;;;;;;;5.75;2.30;;;7.60;99.90;;;;;;6275169;22;20011;-77
2022/05/30 04:56:08;;;;;;;3.38;1.85;;;7.70;99.90;;;;;;6275538;22;20012;-78
2022/05/30 04:58:36;;;;;;;4.25;1.80;;;7.80;99.90;;;;;;6274406;22;20012;-78
2022/05/30 05:01:08;;;;;;;4.93;2.47;;;7.80;99.90;;;;;;6276450;22;20007;-79
2022/05/30 05:03:37;;;;;;;4.10;2.17;;;7.80;99.90;;;;;;6274386;22;20445;-78
2022/05/30 05:06:15;;;;;;;5.63;1.77;;;7.80;99.90;;;;;;6277473;22;20019;-78
2022/05/30 05:08:51;;;;;;;6.28;2.22;;;8.00;99.90;;;;;;6276764;22;20015;-78
2022/05/30 05:11:29;;;;;;;4.18;2.22;;;8.00;99.90;;;;;;6250104;22;20329;-78
2022/05/30 05:13:55;;;;;;;2.97;1.92;;;8.10;99.90;;;;;;6276937;22;20392;-78
2022/05/30 05:16:23;;;;;;;6.55;1.98;;;8.10;99.90;;;;;;6249215;22;20018;-78
2022/05/30 05:18:50;;;;;;;6.03;2.67;;;8.20;99.90;;;;;;6275590;22;20020;-78
2022/05/30 05:21:24;;;;;;;10.18;4.57;;;8.80;99.90;;;;;;6249288;22;20038;-79
2022/05/30 05:23:50;;;;;;;2.63;1.90;;;9.50;99.90;;;;;;6278321;22;20508;-79
2022/05/30 05:26:17;;;;;;;6.60;1.45;;;10.30;99.90;;;;;;6276487;22;20012;-79
2022/05/30 05:28:43;;;;;;;3.75;1.45;;;11.20;99.90;;;;;;6275790;22;20027;-79
2022/05/30 05:31:13;;;;;;;5.25;1.77;;;12.10;99.90;;;;;;6273302;22;20069;-78
2022/05/30 05:33:39;;;;;;;3.60;1.52;;;12.70;99.90;;;;;;6272698;22;20015;-78
2022/05/30 05:36:04;;;;;;;4.07;1.10;;;13.20;99.90;;;;;;6272617;22;20030;-79
2022/05/30 05:38:30;;;;;;;2.92;0.90;;;13.50;99.90;;;;;;6272595;22;20329;-79
2022/05/30 05:40:55;;;;;;;8.80;1.52;;;13.50;99.90;;;;;;6271611;22;20008;-79
2022/05/30 05:43:22;;;;;;;2.85;0.88;;;13.20;99.90;;;;;;6271903;22;20020;-79
2022/05/30 05:45:48;;;;;;;3.78;0.93;;;13.00;99.90;;;;;;6272130;22;20007;-79
2022/05/30 05:48:14;;;;;;;2.70;1.00;;;12.80;99.90;;;;;;6272074;22;20326;-79
2022/05/30 05:50:41;;;;;;;2.35;1.13;;;13.20;99.90;;;;;;6271921;22;20015;-79
2022/05/30 05:53:07;;;;;;;5.30;0.93;;;13.90;99.90;;;;;;6271843;22;20441;-78
2022/05/30 05:55:33;;;;;;;3.28;0.80;;;14.50;99.90;;;;;;6271919;22;20012;-79
2022/05/30 05:57:59;;;;;;;6.07;0.82;;;14.70;99.90;;;;;;6271844;22;20100;-79
2022/05/30 06:00:25;;;;;;;3.58;0.80;;;14.50;99.90;;;;;;6271690;22;20045;-79
2022/05/30 06:02:50;;;;;;;2.65;1.00;;;14.20;99.90;;;;;;6271828;22;20016;-78
2022/05/30 06:05:16;;;;;;;3.50;0.90;;;13.80;99.90;;;;;;6272024;22;20077;-79
2022/05/30 06:07:43;;;;;;;2.42;0.80;;;13.40;99.90;;;;;;6272940;22;20016;-80
2022/05/30 06:10:12;;;;;;;7.82;1.00;;;12.90;99.90;;;;;;6272017;22;20022;-80
2022/05/30 06:12:42;;;;;;;5.07;0.70;;;12.60;99.90;;;;;;6272804;22;20086;-80
2022/05/30 06:15:13;;;;;;;2.58;0.82;;;12.40;99.90;;;;;;6271857;22;20079;-79
2022/05/30 06:17:39;;;;;;;4.30;0.80;;;12.20;99.90;;;;;;6246489;22;20498;-79
2022/05/30 06:20:06;;;;;;;2.50;1.02;;;12.00;99.90;;;;;;6247113;22;20008;-79
2022/05/30 06:22:32;;;;;;;2.38;0.88;;;12.10;99.90;;;;;;6248387;22;20019;-80
2022/05/30 06:24:57;;;;;;;2.70;0.90;;;12.50;99.90;;;;;;6275803;22;20349;-80
2022/05/30 06:27:23;;;;;;;1.60;0.50;;;13.10;99.90;;;;;;6276315;22;20012;-79
2022/05/30 06:29:50;;;;;;;2.17;0.70;;;13.50;99.90;;;;;;6275522;22;20008;-80
2022/05/30 06:32:16;;;;;;;3.17;0.85;;;13.70;99.90;;;;;;6249350;22;20033;-79
2022/05/30 06:34:42;;;;;;;1.02;0.38;;;13.90;99.90;;;;;;6275003;22;20496;-80
2022/05/30 06:37:08;;;;;;;5.35;1.08;;;14.00;99.90;;;;;;6249051;22;20372;-79
2022/05/30 06:39:34;;;;;;;2.75;0.60;;;14.00;99.90;;;;;;6274453;22;20007;-80
2022/05/30 06:41:59;;;;;;;4.57;1.23;;;13.80;99.90;;;;;;6249275;22;20444;-79
2022/05/30 06:44:25;;;;;;;1.02;0.60;;;13.90;99.90;;;;;;6274443;22;20019;-80
2022/05/30 06:46:50;;;;;;;2.33;0.60;;;13.90;99.90;;;;;;6274954;22;20448;-78
2022/05/30 06:49:16;;;;;;;2.78;0.60;;;13.90;99.90;;;;;;6273896;22;20460;-80
2022/05/30 06:51:42;;;;;;;4.35;1.00;;;13.90;99.90;;;;;;6248721;22;20011;-79
2022/05/30 06:54:08;;;;;;;1.65;0.43;;;14.00;99.90;;;;;;6275038;22;20091;-80
2022/05/30 06:56:37;;;;;;;1.80;0.60;;;14.50;99.90;;;;;;6276434;22;20130;-83
2022/05/30 06:59:03;;;;;;;0.85;0.60;;;15.00;99.90;;;;;;6278869;22;20012;-81
2022/05/30 07:01:32;;;;;;;1.60;0.75;;;15.40;99.90;;;;;;6277639;22;20026;-82
2022/05/30 07:03:58;;;;;;;3.47;0.70;;;15.60;99.90;;;;;;6252313;22;20058;-81
2022/05/30 07:06:28;;;;;;;2.15;0.38;;;15.40;99.90;;;;;;6279435;22;20387;-82
2022/05/30 07:08:54;;;;;;;1.92;0.50;;;15.30;99.90;;;;;;6279678;22;20034;-82
2022/05/30 07:11:21;;;;;;;1.27;0.60;;;15.20;99.90;;;;;;6276704;22;20356;-82
2022/05/30 07:13:47;;;;;;;3.17;0.60;;;15.50;99.90;;;;;;6251472;22;20026;-82
2022/05/30 07:16:13;;;;;;;3.33;0.43;;;15.80;99.90;;;;;;6276198;22;20083;-80
2022/05/30 07:18:39;;;;;;;3.05;1.00;;;15.90;99.90;;;;;;6277275;22;20015;-83
2022/05/30 07:21:07;;;;;;;2.08;0.35;;;15.90;99.90;;;;;;6278763;22;20008;-84
2022/05/30 07:23:36;;;;;;;1.00;0.60;;;15.60;99.90;;;;;;6278761;22;20464;-81
2022/05/30 07:26:05;;;;;;;1.42;0.40;;;15.30;99.90;;;;;;6279479;22;20043;-81
2022/05/30 07:28:31;;;;;;;1.48;0.57;;;15.10;99.90;;;;;;6279622;22;20023;-82
2022/05/30 07:31:06;;;;;;;5.05;0.60;;;14.90;99.90;;;;;;6277833;22;20071;-81
2022/05/30 07:33:33;;;;;;;4.78;0.85;;;14.80;99.90;;;;;;6278490;22;20014;-83
2022/05/30 07:35:59;;;;;;;2.15;0.52;;;14.60;99.90;;;;;;6279711;22;20023;-82
2022/05/30 07:38:26;;;;;;;3.25;0.57;;;14.40;99.90;;;;;;6280564;22;20394;-81
2022/05/30 07:40:52;;;;;;;2.88;0.70;;;14.30;99.90;;;;;;6279923;22;20065;-81
2022/05/30 07:43:18;;;;;;;1.13;0.40;;;14.20;99.90;;;;;;6250752;22;20452;-82
2022/05/30 07:45:44;;;;;;;1.52;0.50;;;14.20;99.90;;;;;;6279542;22;20012;-82
2022/05/30 07:48:09;;;;;;;3.03;0.30;;;14.30;99.90;;;;;;6252078;22;20460;-81
2022/05/30 07:50:35;;;;;;;1.63;0.52;;;14.40;99.90;;;;;;6278483;22;20012;-80
2022/05/30 07:53:02;;;;;;;1.00;0.40;;;14.50;99.90;;;;;;6252692;22;20012;-82
2022/05/30 07:55:29;;;;;;;0.82;0.32;;;14.70;99.90;;;;;;6278644;22;20012;-82
2022/05/30 07:57:55;;;;;;;0.98;0.20;;;14.90;99.90;;;;;;6278422;22;20323;-82
2022/05/30 08:00:24;;;;;;;3.20;0.80;;;15.20;99.90;;;;;;6277949;22;20012;-81
2022/05/30 08:02:51;;;;;;;0.80;0.28;;;15.70;99.90;;;;;;6287273;22;20218;-81
2022/05/30 08:05:19;;;;;;;2.50;0.52;;;16.10;99.90;;;;;;6267913;22;20563;-81
2022/05/30 08:07:46;;;;;;;0.88;0.40;;;16.10;99.90;;;;;;6268374;22;20039;-82
2022/05/30 08:10:14;;;;;;;1.83;0.50;;;16.10;99.90;;;;;;6255725;22;20012;-81
2022/05/30 08:12:40;;;;;;;1.55;0.28;;;16.20;99.90;;;;;;6252491;22;20019;-81
2022/05/30 08:15:07;;;;;;;0.40;0.30;;;16.40;99.90;;;;;;6250709;22;20353;-82
2022/05/30 08:17:33;;;;;;;2.03;0.60;;;16.80;99.90;;;;;;6275310;22;20015;-82
2022/05/30 08:20:01;;;;;;;1.60;0.40;;;17.00;99.90;;;;;;6251124;22;20049;-81
2022/05/30 08:22:27;;;;;;;0.85;0.40;;;17.10;99.90;;;;;;6248322;22;20012;-82
2022/05/30 08:24:53;;;;;;;6.03;0.52;;;17.30;99.90;;;;;;6274941;22;20341;-82
2022/05/30 08:27:20;;;;;;;2.55;0.55;;;17.10;99.90;;;;;;6224292;22;20018;-78
2022/05/30 08:29:46;;;;;;;2.58;0.40;;;16.70;99.90;;;;;;6275561;22;20008;-82
2022/05/30 08:32:12;;;;;;;0.80;0.50;;;16.50;99.90;;;;;;6248373;22;20066;-81
2022/05/30 08:34:39;;;;;;;1.95;0.50;;;16.20;99.90;;;;;;6277480;22;20012;-81
2022/05/30 08:37:07;;;;;;;0.40;0.28;;;16.00;99.90;;;;;;6250158;22;20020;-83
2022/05/30 08:42:23;;;;;;;1.27;0.30;;;15.60;99.90;;;;;;6275190;22;20046;-82
2022/05/30 08:44:50;;;;;;;0.60;0.43;;;15.50;99.90;;;;;;6276226;22;20065;-81
2022/05/30 08:47:23;;;;;;;1.77;0.30;;;15.60;99.90;;;;;;6276352;22;20016;-81
2022/05/30 08:49:52;;;;;;;1.08;0.30;;;15.60;99.90;;;;;;6275809;22;20337;-81
2022/05/30 08:52:38;;;;;;;2.85;0.82;;;15.50;99.90;;;;;;6275634;22;20063;-82
2022/05/30 08:55:26;;;;;;;0.70;0.30;;;15.50;99.90;;;;;;6223452;22;20227;-81
2022/05/30 08:58:15;;;;;;;0.70;0.30;;;15.40;99.90;;;;;;6225216;22;20023;-81
2022/05/30 09:00:54;;;;;;;3.90;1.00;;;15.50;99.90;;;;;;6252718;22;20022;-81
2022/05/30 09:03:30;;;;;;;1.10;0.30;;;15.50;99.90;;;;;;6253430;22;20475;-81
2022/05/30 09:06:19;;;;;;;1.00;0.40;;;15.50;99.90;;;;;;6251876;22;20019;-81
2022/05/30 09:09:02;;;;;;;0.70;0.40;;;15.60;99.90;;;;;;6251454;22;20030;-81
2022/05/30 09:11:37;;;;;;;2.25;0.50;;;15.70;99.90;;;;;;6228775;22;20069;-80
2022/05/30 09:14:13;;;;;;;1.95;0.40;;;15.70;99.90;;;;;;6253070;22;20012;-81
2022/05/30 09:16:53;;;;;;;0.40;0.30;;;15.60;99.90;;;;;;6280756;22;20027;-82
2022/05/30 09:19:22;;;;;;;0.20;0.20;;;15.60;99.90;;;;;;6224372;22;20011;-82
2022/05/30 09:21:48;;;;;;;0.45;0.30;;;15.60;99.90;;;;;;6250629;22;20062;-81
2022/05/30 09:24:16;;;;;;;1.85;0.30;;;15.60;99.90;;;;;;6249320;22;20313;-81
2022/05/30 09:26:42;;;;;;;1.65;0.35;;;15.50;99.90;;;;;;6248695;22;20003;-80
2022/05/30 09:29:29;;;;;;;0.57;0.20;;;15.40;99.90;;;;;;6223909;22;20022;-80
2022/05/30 09:32:04;;;;;;;1.33;0.57;;;15.20;99.90;;;;;;6259873;22;20008;-82
2022/05/30 09:34:45;;;;;;;1.45;0.30;;;15.20;99.90;;;;;;6249340;22;20444;-81
2022/05/30 09:37:24;;;;;;;0.88;0.30;;;15.10;99.90;;;;;;6275687;22;20587;-80
2022/05/30 09:39:50;;;;;;;1.90;0.40;;;15.00;99.90;;;;;;6275884;22;20016;-80
2022/05/30 09:42:47;;;;;;;2.08;0.38;;;14.90;99.90;;;;;;6275431;22;20053;-81
2022/05/30 09:45:24;;;;;;;1.08;0.43;;;14.80;99.90;;;;;;6249084;22;20387;-80
2022/05/30 09:48:18;;;;;;;3.55;0.50;;;14.80;99.90;;;;;;6250174;22;20071;-81
2022/05/30 09:50:50;;;;;;;0.65;0.30;;;14.80;99.90;;;;;;6274057;22;20020;-80
2022/05/30 09:53:41;;;;;;;0.82;0.40;;;14.90;99.90;;;;;;6250399;22;20012;-80
2022/05/30 09:56:08;;;;;;;0.57;0.30;;;15.00;99.90;;;;;;6278160;22;20023;-80
2022/05/30 09:59:13;;;;;;;1.45;0.30;;;15.10;99.90;;;;;;6280542;22;20106;-81
2022/05/30 10:01:39;;;;;;;2.53;0.30;;;15.20;99.90;;;;;;6278858;22;20016;-80
2022/05/30 10:04:13;;;;;;;2.42;0.50;;;15.10;99.90;;;;;;6251324;22;20019;-81
2022/05/30 10:06:38;;;;;;;2.80;0.63;;;15.20;99.90;;;;;;6275639;22;20034;-81
2022/05/30 10:09:10;;;;;;;2.58;0.65;;;15.10;99.90;;;;;;6249520;22;20445;-81
2022/05/30 10:11:36;;;;;;;3.72;0.95;;;15.10;99.90;;;;;;6249148;22;20050;-81
2022/05/30 10:14:20;;;;;;;3.35;0.50;;;15.00;99.90;;;;;;6275990;22;20011;-81
2022/05/30 10:16:46;;;;;;;2.92;0.25;;;15.00;99.90;;;;;;6249842;22;20326;-81
2022/05/30 10:19:24;;;;;;;0.95;0.43;;;15.10;99.90;;;;;;6274674;22;20019;-80
2022/05/30 10:28:23;;;;;;;0.65;0.32;;;15.40;99.90;;;;;;6275682;22;20022;-81
2022/05/30 10:31:33;;;;;;;1.63;0.47;;;15.40;99.90;;;;;;6275519;22;20015;-80
2022/05/30 10:34:49;;;;;;;1.17;0.70;;;15.40;99.90;;;;;;6098648;23;20113;-80
2022/05/30 10:37:41;;;;;;;4.40;0.93;;;15.10;99.90;;;;;;6262758;22;20020;-81
2022/05/30 10:40:28;;;;;;;0.80;0.43;;;14.90;99.90;;;;;;6250745;22;20083;-81
2022/05/30 10:43:09;;;;;;;0.98;0.22;;;14.70;99.90;;;;;;6249010;22;20564;-82
2022/05/30 10:45:50;;;;;;;1.55;0.22;;;14.70;99.90;;;;;;6224010;22;20083;-81
2022/05/30 10:48:27;;;;;;;2.58;0.45;;;14.70;99.90;;;;;;6248886;22;20014;-81
2022/05/30 10:51:00;;;;;;;0.95;0.43;;;14.70;99.90;;;;;;6248542;22;20016;-81
2022/05/30 10:53:34;;;;;;;2.40;0.60;;;14.80;99.90;;;;;;6249099;22;20007;-81
2022/05/30 10:56:09;;;;;;;2.63;0.60;;;15.00;99.90;;;;;;6223709;22;20016;-81
2022/05/30 10:58:43;;;;;;;2.63;0.50;;;15.10;99.90;;;;;;6252870;22;20008;-80
2022/05/30 11:01:16;;;;;;;1.58;0.45;;;15.40;99.90;;;;;;6249019;22;20352;-81
2022/05/30 11:03:49;;;;;;;0.70;0.30;;;15.80;99.90;;;;;;6223226;22;20020;-81
2022/05/30 11:06:26;;;;;;;1.65;0.30;;;16.10;99.90;;;;;;6223439;22;20142;-81
2022/05/30 11:08:51;;;;;;;1.52;0.50;;;16.30;99.90;;;;;;6225039;22;20022;-80
2022/05/30 11:11:25;;;;;;;1.30;0.75;;;16.60;99.90;;;;;;6224606;22;20043;-81
2022/05/30 11:14:15;;;;;;;1.48;0.30;;;16.70;99.90;;;;;;6224697;22;20031;-81
2022/05/30 11:16:59;;;;;;;0.70;0.40;;;16.90;99.90;;;;;;6223902;22;20094;-81
2022/05/30 11:19:34;;;;;;;0.50;0.30;;;17.10;99.90;;;;;;6223306;22;20531;-81
2022/05/30 11:22:24;;;;;;;2.45;0.40;;;17.10;99.90;;;;;;6224636;22;20011;-81
2022/05/30 11:24:52;;;;;;;0.75;0.47;;;17.10;98.50;;;;;;6250887;22;20016;-82
2022/05/30 11:27:41;;;;;;;1.25;0.40;;;17.00;99.90;;;;;;6252519;22;20022;-81
2022/05/30 11:30:28;;;;;;;0.60;0.30;;;17.20;99.20;;;;;;6280630;22;20057;-83
2022/05/30 11:33:22;;;;;;;0.90;0.28;;;17.60;99.40;;;;;;6246830;22;20011;-80
2022/05/30 11:35:47;;;;;;;0.60;0.30;;;17.80;97.70;;;;;;6275011;22;20457;-79
2022/05/30 11:38:35;;;;;;;0.32;0.30;;;17.70;98.50;;;;;;6273312;22;20069;-79
2022/05/30 11:41:26;;;;;;;1.48;0.30;;;17.50;96.40;;;;;;6273329;22;20061;-79
2022/05/30 11:44:13;;;;;;;0.63;0.30;;;17.10;97.30;;;;;;6273976;22;20348;-80
2022/05/30 11:46:54;;;;;;;2.10;0.30;;;16.80;98.40;;;;;;6275536;22;20015;-80
2022/05/30 11:49:57;;;;;;;0.73;0.38;;;16.60;98.20;;;;;;6273803;22;20020;-79
2022/05/30 11:53:01;;;;;;;1.33;0.15;;;16.40;98.00;;;;;;6231236;22;20024;-80
2022/05/30 11:55:41;;;;;;;1.23;0.40;;;16.30;96.50;;;;;;6273206;22;20019;-79
2022/05/30 11:58:11;;;;;;;0.77;0.30;;;16.30;99.10;;;;;;6276133;22;20016;-79
2022/05/30 12:00:47;;;;;;;0.47;0.25;;;16.30;99.30;;;;;;6274502;22;20031;-79
2022/05/30 12:03:54;;;;;;;2.28;0.20;;;16.40;97.70;;;;;;6275120;22;20014;-78
2022/05/30 12:06:47;;;;;;;0.25;0.20;;;16.60;97.60;;;;;;6253912;22;20023;-78
2022/05/30 12:09:30;;;;;;;1.95;0.60;;;17.20;98.20;;;;;;6280690;22;20065;-82
2022/05/30 12:12:20;;;;;;;0.20;0.20;;;17.60;98.40;;;;;;6280397;22;20020;-81
2022/05/30 12:15:30;;;;;;;2.70;0.43;;;17.90;97.80;;;;;;6279764;22;20015;-84
2022/05/30 12:24:15;;;;;;;1.85;0.32;;;17.40;95.60;;;;;;6300499;22;20082;-83
2022/05/30 12:26:49;;;;;;;0.40;0.40;;;17.50;95.80;;;;;;6272612;22;20034;-82
2022/05/30 12:29:30;;;;;;;0.47;0.25;;;17.50;93.70;;;;;;6300516;22;20015;-82
2022/05/30 12:32:20;;;;;;;2.72;0.30;;;17.30;92.20;;;;;;6276230;22;20449;-81
2022/05/30 12:34:58;;;;;;;0.20;0.20;;;17.40;92.50;;;;;;6249369;22;20468;-82
2022/05/30 12:37:46;;;;;;;2.45;0.20;;;17.20;92.50;;;;;;6274009;22;20449;-81
2022/05/30 12:40:26;;;;;;;0.30;0.30;;;16.90;91.10;;;;;;6251180;22;20043;-81
2022/05/30 12:43:19;;;;;;;1.25;0.40;;;16.80;94.70;;;;;;6276724;22;20426;-81
2022/05/30 12:45:46;;;;;;;0.82;0.20;;;16.80;94.80;;;;;;6276192;22;20022;-82
2022/05/30 12:48:18;;;;;;;1.90;0.30;;;16.60;95.60;;;;;;6250852;22;20509;-81
2022/05/30 12:51:00;;;;;;;2.70;0.45;;;16.60;95.60;;;;;;6279545;22;20014;-82
2022/05/30 12:53:54;;;;;;;2.08;0.35;;;16.50;95.40;;;;;;6277660;22;20012;-81
2022/05/30 12:56:38;;;;;;;0.40;0.40;;;16.60;95.40;;;;;;6278539;22;20042;-81
2022/05/30 12:59:03;;;;;;;0.20;0.20;;;16.50;94.40;;;;;;6252285;22;20020;-82
2022/05/30 13:01:44;;;;;;;1.90;0.45;;;16.60;95.60;;;;;;6277450;22;20465;-82
2022/05/30 13:04:22;;;;;;;0.50;0.30;;;16.70;94.10;;;;;;6276281;22;20012;-82
2022/05/30 13:06:57;;;;;;;0.90;0.43;;;16.60;94.40;;;;;;6250444;22;20094;-82
2022/05/30 13:09:36;;;;;;;2.72;0.80;;;16.60;96.00;;;;;;6278771;22;20042;-82
2022/05/30 13:12:10;;;;;;;2.00;0.60;;;16.50;97.70;;;;;;6277224;22;20022;-82
2022/05/30 13:15:00;;;;;;;3.22;0.60;;;16.40;98.70;;;;;;6278552;22;20015;-81
2022/05/30 13:17:46;;;;;;;1.80;0.80;;;16.30;99.30;;;;;;6277514;22;20417;-80
2022/05/30 13:20:32;;;;;;;0.85;0.47;;;16.10;99.20;;;;;;6277801;22;20016;-81
2022/05/30 13:23:01;;;;;;;0.43;0.30;;;16.00;99.70;;;;;;6277625;22;20073;-81
2022/05/30 13:25:29;;;;;;;1.17;0.65;;;16.00;99.90;;;;;;6251150;22;20087;-81
2022/05/30 13:28:01;;;;;;;2.72;0.43;;;16.00;99.90;;;;;;6254108;22;20022;-81
2022/05/30 13:30:28;;;;;;;0.75;0.30;;;16.10;99.10;;;;;;6278449;22;20016;-81
2022/05/30 13:32:54;;;;;;;1.30;0.32;;;16.10;99.60;;;;;;6278614;22;20015;-81